sensor_id;sensor_type;location;lat;lon;timestamp;temperature;humidity
21891;DHT22;11110;52.386;16.940;2023-02-28T00:01:35;15.40;36.20
21891;DHT22;11110;52.386;16.940;2023-02-28T00:04:05;15.40;36.40
21891;DHT22;11110;52.386;16.940;2023-02-28T00:06:36;15.40;36.50
21891;DHT22;11110;52.386;16.940;2023-02-28T00:09:06;15.40;36.60
21891;DHT22;11110;52.386;16.940;2023-02-28T00:11:34;15.30;36.40
21891;DHT22;11110;52.386;16.940;2023-02-28T00:14:05;15.30;36.40
21891;DHT22;11110;52.386;16.940;2023-02-28T00:16:33;15.30;36.40
21891;DHT22;11110;52.386;16.940;2023-02-28T00:19:02;15.30;36.70
21891;DHT22;11110;52.386;16.940;2023-02-28T00:21:31;15.20;36.70
21891;DHT22;11110;52.386;16.940;2023-02-28T00:23:59;15.20;36.80
21891;DHT22;11110;52.386;16.940;2023-02-28T00:26:30;15.20;36.80
21891;DHT22;11110;52.386;16.940;2023-02-28T00:28:59;15.10;36.90
21891;DHT22;11110;52.386;16.940;2023-02-28T00:31:28;15.10;37.00
21891;DHT22;11110;52.386;16.940;2023-02-28T00:33:57;15.00;37.00
21891;DHT22;11110;52.386;16.940;2023-02-28T00:36:25;15.00;37.00
21891;DHT22;11110;52.386;16.940;2023-02-28T00:38:55;15.00;37.10
21891;DHT22;11110;52.386;16.940;2023-02-28T00:41:23;15.00;37.10
21891;DHT22;11110;52.386;16.940;2023-02-28T00:43:53;15.00;37.20
21891;DHT22;11110;52.386;16.940;2023-02-28T00:46:22;15.00;37.30
21891;DHT22;11110;52.386;16.940;2023-02-28T00:48:51;14.90;37.20
21891;DHT22;11110;52.386;16.940;2023-02-28T00:51:19;14.90;37.10
21891;DHT22;11110;52.386;16.940;2023-02-28T00:53:48;14.90;37.10
21891;DHT22;11110;52.386;16.940;2023-02-28T00:56:17;14.90;37.50
21891;DHT22;11110;52.386;16.940;2023-02-28T00:58:47;14.90;38.00
21891;DHT22;11110;52.386;16.940;2023-02-28T01:01:17;15.00;37.80
21891;DHT22;11110;52.386;16.940;2023-02-28T01:03:46;15.00;37.50
21891;DHT22;11110;52.386;16.940;2023-02-28T01:06:14;14.90;37.30
21891;DHT22;11110;52.386;16.940;2023-02-28T01:08:43;15.00;37.30
21891;DHT22;11110;52.386;16.940;2023-02-28T01:11:13;14.90;37.20
21891;DHT22;11110;52.386;16.940;2023-02-28T01:13:44;14.90;37.20
21891;DHT22;11110;52.386;16.940;2023-02-28T01:16:13;14.80;37.30
21891;DHT22;11110;52.386;16.940;2023-02-28T01:18:43;14.80;37.30
21891;DHT22;11110;52.386;16.940;2023-02-28T01:21:15;14.80;37.40
21891;DHT22;11110;52.386;16.940;2023-02-28T01:23:45;14.80;37.40
21891;DHT22;11110;52.386;16.940;2023-02-28T01:26:19;14.70;37.30
21891;DHT22;11110;52.386;16.940;2023-02-28T01:28:49;14.70;37.30
21891;DHT22;11110;52.386;16.940;2023-02-28T01:31:19;14.80;37.40
21891;DHT22;11110;52.386;16.940;2023-02-28T01:33:50;14.70;37.40
21891;DHT22;11110;52.386;16.940;2023-02-28T01:36:21;14.70;37.40
21891;DHT22;11110;52.386;16.940;2023-02-28T01:38:51;14.70;37.50
21891;DHT22;11110;52.386;16.940;2023-02-28T01:41:21;14.70;37.60
21891;DHT22;11110;52.386;16.940;2023-02-28T01:44:03;14.70;37.60
21891;DHT22;11110;52.386;16.940;2023-02-28T01:46:34;14.70;37.60
21891;DHT22;11110;52.386;16.940;2023-02-28T01:49:08;14.60;37.60
21891;DHT22;11110;52.386;16.940;2023-02-28T01:51:41;14.60;37.60
21891;DHT22;11110;52.386;16.940;2023-02-28T01:54:16;14.60;37.60
21891;DHT22;11110;52.386;16.940;2023-02-28T01:56:49;14.60;37.70
21891;DHT22;11110;52.386;16.940;2023-02-28T01:59:23;14.60;37.60
21891;DHT22;11110;52.386;16.940;2023-02-28T02:01:54;14.60;37.60
21891;DHT22;11110;52.386;16.940;2023-02-28T02:04:27;14.60;37.60
21891;DHT22;11110;52.386;16.940;2023-02-28T02:07:00;14.50;37.50
21891;DHT22;11110;52.386;16.940;2023-02-28T02:09:30;14.50;37.60
21891;DHT22;11110;52.386;16.940;2023-02-28T02:12:00;14.40;37.60
21891;DHT22;11110;52.386;16.940;2023-02-28T02:14:47;14.40;37.70
21891;DHT22;11110;52.386;16.940;2023-02-28T02:17:24;14.40;37.70
21891;DHT22;11110;52.386;16.940;2023-02-28T02:20:22;14.40;37.70
21891;DHT22;11110;52.386;16.940;2023-02-28T02:23:24;14.40;37.70
21891;DHT22;11110;52.386;16.940;2023-02-28T02:25:58;14.30;37.80
21891;DHT22;11110;52.386;16.940;2023-02-28T02:28:56;14.30;37.80
21891;DHT22;11110;52.386;16.940;2023-02-28T02:31:58;14.30;37.70
21891;DHT22;11110;52.386;16.940;2023-02-28T02:34:57;14.30;37.60
21891;DHT22;11110;52.386;16.940;2023-02-28T02:37:36;14.30;37.60
21891;DHT22;11110;52.386;16.940;2023-02-28T02:40:12;14.30;37.70
21891;DHT22;11110;52.386;16.940;2023-02-28T02:42:49;14.20;37.60
21891;DHT22;11110;52.386;16.940;2023-02-28T02:45:23;14.20;37.70
21891;DHT22;11110;52.386;16.940;2023-02-28T02:47:57;14.10;37.70
21891;DHT22;11110;52.386;16.940;2023-02-28T02:50:34;14.10;37.80
21891;DHT22;11110;52.386;16.940;2023-02-28T02:53:07;14.10;38.00
21891;DHT22;11110;52.386;16.940;2023-02-28T02:55:40;14.10;38.00
21891;DHT22;11110;52.386;16.940;2023-02-28T02:58:13;14.10;38.00
21891;DHT22;11110;52.386;16.940;2023-02-28T03:00:45;14.10;38.00
21891;DHT22;11110;52.386;16.940;2023-02-28T03:03:16;14.00;38.00
21891;DHT22;11110;52.386;16.940;2023-02-28T03:05:50;14.00;38.10
21891;DHT22;11110;52.386;16.940;2023-02-28T03:08:19;14.00;38.10
21891;DHT22;11110;52.386;16.940;2023-02-28T03:10:49;14.00;38.10
21891;DHT22;11110;52.386;16.940;2023-02-28T03:16:31;14.00;38.10
21891;DHT22;11110;52.386;16.940;2023-02-28T03:19:19;14.90;38.60
21891;DHT22;11110;52.386;16.940;2023-02-28T03:22:01;14.00;38.20
21891;DHT22;11110;52.386;16.940;2023-02-28T03:24:34;14.00;38.10
21891;DHT22;11110;52.386;16.940;2023-02-28T03:27:09;13.90;38.00
21891;DHT22;11110;52.386;16.940;2023-02-28T03:29:43;13.90;38.10
21891;DHT22;11110;52.386;16.940;2023-02-28T03:32:18;13.90;38.30
21891;DHT22;11110;52.386;16.940;2023-02-28T03:34:56;13.90;38.40
21891;DHT22;11110;52.386;16.940;2023-02-28T03:37:30;13.90;38.40
21891;DHT22;11110;52.386;16.940;2023-02-28T03:40:05;13.90;38.50
21891;DHT22;11110;52.386;16.940;2023-02-28T03:42:36;13.80;38.50
21891;DHT22;11110;52.386;16.940;2023-02-28T03:45:11;13.80;38.40
21891;DHT22;11110;52.386;16.940;2023-02-28T03:47:46;13.80;38.40
21891;DHT22;11110;52.386;16.940;2023-02-28T03:50:19;13.80;38.50
21891;DHT22;11110;52.386;16.940;2023-02-28T03:52:54;13.80;38.40
21891;DHT22;11110;52.386;16.940;2023-02-28T03:55:33;13.80;38.50
21891;DHT22;11110;52.386;16.940;2023-02-28T03:58:08;13.80;38.40
21891;DHT22;11110;52.386;16.940;2023-02-28T04:00:43;13.70;38.50
21891;DHT22;11110;52.386;16.940;2023-02-28T04:03:14;13.70;38.50
21891;DHT22;11110;52.386;16.940;2023-02-28T04:05:51;13.60;38.50
21891;DHT22;11110;52.386;16.940;2023-02-28T04:08:22;13.70;38.60
21891;DHT22;11110;52.386;16.940;2023-02-28T04:10:57;13.70;38.60
21891;DHT22;11110;52.386;16.940;2023-02-28T04:13:29;13.70;38.50
21891;DHT22;11110;52.386;16.940;2023-02-28T04:15:57;13.70;38.40
21891;DHT22;11110;52.386;16.940;2023-02-28T04:18:26;13.60;38.40
21891;DHT22;11110;52.386;16.940;2023-02-28T04:20:55;13.70;38.50
21891;DHT22;11110;52.386;16.940;2023-02-28T04:23:24;13.60;39.00
21891;DHT22;11110;52.386;16.940;2023-02-28T04:25:55;13.60;38.40
21891;DHT22;11110;52.386;16.940;2023-02-28T04:28:23;13.60;38.40
21891;DHT22;11110;52.386;16.940;2023-02-28T04:30:56;13.60;38.50
21891;DHT22;11110;52.386;16.940;2023-02-28T04:33:25;13.60;38.60
21891;DHT22;11110;52.386;16.940;2023-02-28T04:36:01;13.50;38.60
21891;DHT22;11110;52.386;16.940;2023-02-28T04:38:33;13.50;38.60
21891;DHT22;11110;52.386;16.940;2023-02-28T04:41:03;13.50;38.60
21891;DHT22;11110;52.386;16.940;2023-02-28T04:43:32;13.40;38.50
21891;DHT22;11110;52.386;16.940;2023-02-28T04:46:03;13.50;38.60
21891;DHT22;11110;52.386;16.940;2023-02-28T04:48:33;13.40;38.60
21891;DHT22;11110;52.386;16.940;2023-02-28T04:51:04;13.40;38.60
21891;DHT22;11110;52.386;16.940;2023-02-28T04:53:35;13.40;38.70
21891;DHT22;11110;52.386;16.940;2023-02-28T04:56:05;13.40;38.60
21891;DHT22;11110;52.386;16.940;2023-02-28T04:58:34;13.40;38.60
21891;DHT22;11110;52.386;16.940;2023-02-28T05:01:04;13.40;38.40
21891;DHT22;11110;52.386;16.940;2023-02-28T05:03:40;13.40;38.40
21891;DHT22;11110;52.386;16.940;2023-02-28T05:06:09;13.40;38.40
21891;DHT22;11110;52.386;16.940;2023-02-28T05:08:40;13.40;38.40
21891;DHT22;11110;52.386;16.940;2023-02-28T05:11:15;13.40;38.30
21891;DHT22;11110;52.386;16.940;2023-02-28T05:13:43;13.40;38.40
21891;DHT22;11110;52.386;16.940;2023-02-28T05:16:12;13.40;38.50
21891;DHT22;11110;52.386;16.940;2023-02-28T05:18:41;13.40;38.50
21891;DHT22;11110;52.386;16.940;2023-02-28T05:21:24;13.30;38.40
21891;DHT22;11110;52.386;16.940;2023-02-28T05:23:57;13.40;38.40
21891;DHT22;11110;52.386;16.940;2023-02-28T05:26:26;13.40;38.40
21891;DHT22;11110;52.386;16.940;2023-02-28T05:28:55;13.30;39.10
21891;DHT22;11110;52.386;16.940;2023-02-28T05:31:24;13.30;38.40
21891;DHT22;11110;52.386;16.940;2023-02-28T05:33:52;13.30;38.50
21891;DHT22;11110;52.386;16.940;2023-02-28T05:36:21;13.30;38.60
21891;DHT22;11110;52.386;16.940;2023-02-28T05:38:50;13.30;38.60
21891;DHT22;11110;52.386;16.940;2023-02-28T05:41:20;13.30;38.40
21891;DHT22;11110;52.386;16.940;2023-02-28T05:43:49;13.30;38.50
21891;DHT22;11110;52.386;16.940;2023-02-28T05:46:18;13.30;38.40
21891;DHT22;11110;52.386;16.940;2023-02-28T05:48:47;13.20;38.50
21891;DHT22;11110;52.386;16.940;2023-02-28T05:51:17;13.20;38.80
21891;DHT22;11110;52.386;16.940;2023-02-28T05:53:45;13.20;38.80
21891;DHT22;11110;52.386;16.940;2023-02-28T05:56:15;13.20;38.80
21891;DHT22;11110;52.386;16.940;2023-02-28T05:58:45;13.20;38.80
21891;DHT22;11110;52.386;16.940;2023-02-28T06:01:23;13.20;38.80
21891;DHT22;11110;52.386;16.940;2023-02-28T06:03:51;13.20;38.90
21891;DHT22;11110;52.386;16.940;2023-02-28T06:06:20;13.10;38.80
21891;DHT22;11110;52.386;16.940;2023-02-28T06:08:49;13.20;38.90
21891;DHT22;11110;52.386;16.940;2023-02-28T06:11:18;13.20;38.80
21891;DHT22;11110;52.386;16.940;2023-02-28T06:13:48;13.20;38.80
21891;DHT22;11110;52.386;16.940;2023-02-28T06:16:17;13.20;38.80
21891;DHT22;11110;52.386;16.940;2023-02-28T06:18:46;13.10;38.90
21891;DHT22;11110;52.386;16.940;2023-02-28T06:21:15;13.20;39.00
21891;DHT22;11110;52.386;16.940;2023-02-28T06:23:43;13.20;38.90
21891;DHT22;11110;52.386;16.940;2023-02-28T06:26:12;13.10;38.80
21891;DHT22;11110;52.386;16.940;2023-02-28T06:28:40;13.20;38.80
21891;DHT22;11110;52.386;16.940;2023-02-28T06:31:12;13.20;38.90
21891;DHT22;11110;52.386;16.940;2023-02-28T06:33:41;13.20;38.90
21891;DHT22;11110;52.386;16.940;2023-02-28T06:36:12;13.20;38.90
21891;DHT22;11110;52.386;16.940;2023-02-28T06:38:41;13.20;38.90
21891;DHT22;11110;52.386;16.940;2023-02-28T06:41:11;13.10;38.90
21891;DHT22;11110;52.386;16.940;2023-02-28T06:43:41;13.20;39.00
21891;DHT22;11110;52.386;16.940;2023-02-28T06:46:13;13.20;38.90
21891;DHT22;11110;52.386;16.940;2023-02-28T06:48:43;13.20;39.00
21891;DHT22;11110;52.386;16.940;2023-02-28T06:51:14;13.20;38.90
21891;DHT22;11110;52.386;16.940;2023-02-28T06:53:43;13.20;38.90
21891;DHT22;11110;52.386;16.940;2023-02-28T06:56:13;13.20;39.00
21891;DHT22;11110;52.386;16.940;2023-02-28T06:58:46;13.20;39.00
21891;DHT22;11110;52.386;16.940;2023-02-28T07:01:17;13.20;39.20
21891;DHT22;11110;52.386;16.940;2023-02-28T07:03:46;13.20;39.20
21891;DHT22;11110;52.386;16.940;2023-02-28T07:06:19;13.30;39.20
21891;DHT22;11110;52.386;16.940;2023-02-28T07:08:50;13.30;39.20
21891;DHT22;11110;52.386;16.940;2023-02-28T07:11:20;13.40;39.30
21891;DHT22;11110;52.386;16.940;2023-02-28T07:13:49;13.30;39.20
21891;DHT22;11110;52.386;16.940;2023-02-28T07:16:20;13.40;39.30
21891;DHT22;11110;52.386;16.940;2023-02-28T07:18:49;13.40;39.30
21891;DHT22;11110;52.386;16.940;2023-02-28T07:21:18;13.40;39.30
21891;DHT22;11110;52.386;16.940;2023-02-28T07:23:46;13.50;39.30
21891;DHT22;11110;52.386;16.940;2023-02-28T07:26:17;13.50;39.20
21891;DHT22;11110;52.386;16.940;2023-02-28T07:28:47;13.60;39.30
21891;DHT22;11110;52.386;16.940;2023-02-28T07:31:17;13.60;39.30
21891;DHT22;11110;52.386;16.940;2023-02-28T07:33:47;13.70;39.20
21891;DHT22;11110;52.386;16.940;2023-02-28T07:36:17;13.80;39.30
21891;DHT22;11110;52.386;16.940;2023-02-28T07:38:47;13.80;39.30
21891;DHT22;11110;52.386;16.940;2023-02-28T07:41:19;13.80;39.20
21891;DHT22;11110;52.386;16.940;2023-02-28T07:43:48;13.90;39.20
21891;DHT22;11110;52.386;16.940;2023-02-28T07:46:18;13.90;39.10
21891;DHT22;11110;52.386;16.940;2023-02-28T07:48:49;14.00;39.10
21891;DHT22;11110;52.386;16.940;2023-02-28T07:51:18;14.00;39.20
21891;DHT22;11110;52.386;16.940;2023-02-28T07:53:48;14.00;39.20
21891;DHT22;11110;52.386;16.940;2023-02-28T07:56:17;14.10;39.20
21891;DHT22;11110;52.386;16.940;2023-02-28T07:58:45;14.20;39.20
21891;DHT22;11110;52.386;16.940;2023-02-28T08:01:14;14.20;39.30
21891;DHT22;11110;52.386;16.940;2023-02-28T08:03:43;14.30;39.30
21891;DHT22;11110;52.386;16.940;2023-02-28T08:06:18;14.30;39.20
21891;DHT22;11110;52.386;16.940;2023-02-28T08:08:47;14.30;39.20
21891;DHT22;11110;52.386;16.940;2023-02-28T08:11:16;14.40;39.40
21891;DHT22;11110;52.386;16.940;2023-02-28T08:13:45;14.40;39.30
21891;DHT22;11110;52.386;16.940;2023-02-28T08:16:14;14.50;39.30
21891;DHT22;11110;52.386;16.940;2023-02-28T08:18:49;14.50;39.20
21891;DHT22;11110;52.386;16.940;2023-02-28T08:21:20;14.60;39.20
21891;DHT22;11110;52.386;16.940;2023-02-28T08:23:49;14.60;39.20
21891;DHT22;11110;52.386;16.940;2023-02-28T08:26:18;14.70;39.20
21891;DHT22;11110;52.386;16.940;2023-02-28T08:28:47;14.70;39.20
21891;DHT22;11110;52.386;16.940;2023-02-28T08:31:16;14.80;39.20
21891;DHT22;11110;52.386;16.940;2023-02-28T08:33:45;14.90;39.10
21891;DHT22;11110;52.386;16.940;2023-02-28T08:36:16;14.90;39.10
21891;DHT22;11110;52.386;16.940;2023-02-28T08:38:46;14.90;38.90
21891;DHT22;11110;52.386;16.940;2023-02-28T08:41:15;15.00;38.90
21891;DHT22;11110;52.386;16.940;2023-02-28T08:43:44;15.10;38.80
21891;DHT22;11110;52.386;16.940;2023-02-28T08:46:13;15.10;38.80
21891;DHT22;11110;52.386;16.940;2023-02-28T08:48:42;15.20;38.80
21891;DHT22;11110;52.386;16.940;2023-02-28T08:51:12;15.20;38.60
21891;DHT22;11110;52.386;16.940;2023-02-28T08:53:43;15.30;38.60
21891;DHT22;11110;52.386;16.940;2023-02-28T08:56:15;15.30;38.60
21891;DHT22;11110;52.386;16.940;2023-02-28T08:58:45;15.40;38.60
21891;DHT22;11110;52.386;16.940;2023-02-28T09:01:16;15.40;38.60
21891;DHT22;11110;52.386;16.940;2023-02-28T09:03:46;15.40;38.70
21891;DHT22;11110;52.386;16.940;2023-02-28T09:06:17;15.50;38.70
21891;DHT22;11110;52.386;16.940;2023-02-28T09:08:46;15.50;38.30
21891;DHT22;11110;52.386;16.940;2023-02-28T09:11:16;15.50;38.20
21891;DHT22;11110;52.386;16.940;2023-02-28T09:13:46;15.60;38.20
21891;DHT22;11110;52.386;16.940;2023-02-28T09:16:15;15.60;38.10
21891;DHT22;11110;52.386;16.940;2023-02-28T09:18:44;15.70;38.10
21891;DHT22;11110;52.386;16.940;2023-02-28T09:21:16;15.80;38.00
21891;DHT22;11110;52.386;16.940;2023-02-28T09:23:46;15.80;38.00
21891;DHT22;11110;52.386;16.940;2023-02-28T09:26:18;15.90;37.70
21891;DHT22;11110;52.386;16.940;2023-02-28T09:28:48;15.90;37.40
21891;DHT22;11110;52.386;16.940;2023-02-28T09:31:19;16.00;37.40
21891;DHT22;11110;52.386;16.940;2023-02-28T09:33:49;16.00;37.40
21891;DHT22;11110;52.386;16.940;2023-02-28T09:36:18;16.10;37.40
21891;DHT22;11110;52.386;16.940;2023-02-28T09:38:48;16.10;37.20
21891;DHT22;11110;52.386;16.940;2023-02-28T09:41:22;16.10;37.50
21891;DHT22;11110;52.386;16.940;2023-02-28T09:43:55;16.20;37.70
21891;DHT22;11110;52.386;16.940;2023-02-28T09:46:33;16.30;37.60
21891;DHT22;11110;52.386;16.940;2023-02-28T09:49:06;16.30;36.90
21891;DHT22;11110;52.386;16.940;2023-02-28T09:51:43;16.30;36.50
21891;DHT22;11110;52.386;16.940;2023-02-28T09:54:15;16.40;36.00
21891;DHT22;11110;52.386;16.940;2023-02-28T09:56:49;16.40;36.30
21891;DHT22;11110;52.386;16.940;2023-02-28T09:59:49;16.40;36.80
21891;DHT22;11110;52.386;16.940;2023-02-28T10:02:41;16.50;36.80
21891;DHT22;11110;52.386;16.940;2023-02-28T10:05:17;16.50;36.40
21891;DHT22;11110;52.386;16.940;2023-02-28T10:08:00;16.60;36.20
21891;DHT22;11110;52.386;16.940;2023-02-28T10:10:36;16.60;36.90
21891;DHT22;11110;52.386;16.940;2023-02-28T10:13:17;16.60;36.60
21891;DHT22;11110;52.386;16.940;2023-02-28T10:15:51;16.60;36.60
21891;DHT22;11110;52.386;16.940;2023-02-28T10:18:23;16.70;36.30
21891;DHT22;11110;52.386;16.940;2023-02-28T10:20:54;16.80;36.20
21891;DHT22;11110;52.386;16.940;2023-02-28T10:23:27;16.80;35.60
21891;DHT22;11110;52.386;16.940;2023-02-28T10:25:59;16.80;34.70
21891;DHT22;11110;52.386;16.940;2023-02-28T10:28:30;16.90;34.50
21891;DHT22;11110;52.386;16.940;2023-02-28T10:30:59;17.00;34.70
21891;DHT22;11110;52.386;16.940;2023-02-28T10:33:30;17.00;34.10
21891;DHT22;11110;52.386;16.940;2023-02-28T10:35:59;17.00;34.10
21891;DHT22;11110;52.386;16.940;2023-02-28T10:38:33;17.00;33.40
21891;DHT22;11110;52.386;16.940;2023-02-28T10:41:06;17.00;33.90
21891;DHT22;11110;52.386;16.940;2023-02-28T10:43:38;17.00;33.20
21891;DHT22;11110;52.386;16.940;2023-02-28T10:46:13;17.10;32.90
21891;DHT22;11110;52.386;16.940;2023-02-28T10:48:45;17.10;33.00
21891;DHT22;11110;52.386;16.940;2023-02-28T10:51:19;17.20;33.50
21891;DHT22;11110;52.386;16.940;2023-02-28T10:53:49;17.20;33.30
21891;DHT22;11110;52.386;16.940;2023-02-28T10:56:28;17.30;33.20
21891;DHT22;11110;52.386;16.940;2023-02-28T10:59:01;17.20;33.30
21891;DHT22;11110;52.386;16.940;2023-02-28T11:01:38;17.30;32.70
21891;DHT22;11110;52.386;16.940;2023-02-28T11:04:18;17.40;31.90
21891;DHT22;11110;52.386;16.940;2023-02-28T11:06:57;17.40;32.40
21891;DHT22;11110;52.386;16.940;2023-02-28T11:09:29;17.60;32.20
21891;DHT22;11110;52.386;16.940;2023-02-28T11:11:59;17.60;32.40
21891;DHT22;11110;52.386;16.940;2023-02-28T11:14:31;17.60;32.20
21891;DHT22;11110;52.386;16.940;2023-02-28T11:17:13;17.70;31.60
21891;DHT22;11110;52.386;16.940;2023-02-28T11:19:45;17.80;31.90
21891;DHT22;11110;52.386;16.940;2023-02-28T11:22:19;17.90;32.20
21891;DHT22;11110;52.386;16.940;2023-02-28T11:24:52;17.90;32.20
21891;DHT22;11110;52.386;16.940;2023-02-28T11:27:44;18.00;31.90
21891;DHT22;11110;52.386;16.940;2023-02-28T11:30:40;18.00;32.00
21891;DHT22;11110;52.386;16.940;2023-02-28T11:33:27;18.00;31.70
21891;DHT22;11110;52.386;16.940;2023-02-28T11:36:00;18.00;31.70
21891;DHT22;11110;52.386;16.940;2023-02-28T11:38:29;18.00;31.60
21891;DHT22;11110;52.386;16.940;2023-02-28T11:44:08;18.20;32.10
21891;DHT22;11110;52.386;16.940;2023-02-28T11:46:43;18.30;31.70
21891;DHT22;11110;52.386;16.940;2023-02-28T11:49:28;18.30;32.00
21891;DHT22;11110;52.386;16.940;2023-02-28T11:52:01;18.30;32.10
21891;DHT22;11110;52.386;16.940;2023-02-28T11:54:44;18.30;32.20
21891;DHT22;11110;52.386;16.940;2023-02-28T11:57:30;18.40;32.20
21891;DHT22;11110;52.386;16.940;2023-02-28T12:00:07;18.40;31.90
21891;DHT22;11110;52.386;16.940;2023-02-28T12:02:54;18.50;31.70
21891;DHT22;11110;52.386;16.940;2023-02-28T12:05:31;18.60;31.40
21891;DHT22;11110;52.386;16.940;2023-02-28T12:08:10;18.70;31.20
21891;DHT22;11110;52.386;16.940;2023-02-28T12:10:53;18.80;31.20
21891;DHT22;11110;52.386;16.940;2023-02-28T12:13:29;19.00;30.90
21891;DHT22;11110;52.386;16.940;2023-02-28T12:19:13;19.10;30.80
21891;DHT22;11110;52.386;16.940;2023-02-28T12:22:03;19.20;31.00
21891;DHT22;11110;52.386;16.940;2023-02-28T12:24:53;19.30;30.30
21891;DHT22;11110;52.386;16.940;2023-02-28T12:27:25;19.30;30.50
21891;DHT22;11110;52.386;16.940;2023-02-28T12:29:58;19.30;30.90
21891;DHT22;11110;52.386;16.940;2023-02-28T12:32:32;19.30;30.70
21891;DHT22;11110;52.386;16.940;2023-02-28T12:35:11;19.40;30.60
21891;DHT22;11110;52.386;16.940;2023-02-28T12:37:43;19.40;30.80
21891;DHT22;11110;52.386;16.940;2023-02-28T12:40:17;19.40;30.30
21891;DHT22;11110;52.386;16.940;2023-02-28T12:42:50;19.50;30.30
21891;DHT22;11110;52.386;16.940;2023-02-28T12:45:22;19.60;30.50
21891;DHT22;11110;52.386;16.940;2023-02-28T12:47:57;19.70;29.60
21891;DHT22;11110;52.386;16.940;2023-02-28T12:50:30;19.80;29.50
21891;DHT22;11110;52.386;16.940;2023-02-28T12:53:01;19.80;29.60
21891;DHT22;11110;52.386;16.940;2023-02-28T12:55:38;19.90;29.50
21891;DHT22;11110;52.386;16.940;2023-02-28T12:58:13;20.10;29.50
21891;DHT22;11110;52.386;16.940;2023-02-28T13:00:58;20.20;29.20
21891;DHT22;11110;52.386;16.940;2023-02-28T13:06:43;20.30;29.20
21891;DHT22;11110;52.386;16.940;2023-02-28T13:09:17;20.40;28.50
21891;DHT22;11110;52.386;16.940;2023-02-28T13:11:48;20.40;28.50
21891;DHT22;11110;52.386;16.940;2023-02-28T13:14:24;20.40;28.00
21891;DHT22;11110;52.386;16.940;2023-02-28T13:17:02;20.50;27.50
21891;DHT22;11110;52.386;16.940;2023-02-28T13:19:33;20.40;27.50
21891;DHT22;11110;52.386;16.940;2023-02-28T13:22:04;20.40;27.30
21891;DHT22;11110;52.386;16.940;2023-02-28T13:24:51;20.30;27.60
21891;DHT22;11110;52.386;16.940;2023-02-28T13:27:24;20.40;27.30
21891;DHT22;11110;52.386;16.940;2023-02-28T13:29:53;20.30;27.90
21891;DHT22;11110;52.386;16.940;2023-02-28T13:32:42;20.20;27.80
21891;DHT22;11110;52.386;16.940;2023-02-28T13:35:47;20.10;27.50
21891;DHT22;11110;52.386;16.940;2023-02-28T13:38:33;20.10;28.10
21891;DHT22;11110;52.386;16.940;2023-02-28T13:41:40;20.10;27.50
21891;DHT22;11110;52.386;16.940;2023-02-28T13:44:10;20.10;28.10
21891;DHT22;11110;52.386;16.940;2023-02-28T13:49:41;20.40;27.90
21891;DHT22;11110;52.386;16.940;2023-02-28T13:52:14;20.50;27.60
21891;DHT22;11110;52.386;16.940;2023-02-28T13:55:02;20.70;27.30
21891;DHT22;11110;52.386;16.940;2023-02-28T13:57:49;20.90;27.00
21891;DHT22;11110;52.386;16.940;2023-02-28T14:00:31;20.90;26.60
21891;DHT22;11110;52.386;16.940;2023-02-28T14:03:17;20.90;26.60
21891;DHT22;11110;52.386;16.940;2023-02-28T14:08:55;21.00;26.20
21891;DHT22;11110;52.386;16.940;2023-02-28T14:11:30;20.90;26.20
21891;DHT22;11110;52.386;16.940;2023-02-28T14:14:00;20.90;26.10
21891;DHT22;11110;52.386;16.940;2023-02-28T14:16:37;20.80;26.00
21891;DHT22;11110;52.386;16.940;2023-02-28T14:19:12;20.70;26.40
21891;DHT22;11110;52.386;16.940;2023-02-28T14:21:58;20.60;25.90
21891;DHT22;11110;52.386;16.940;2023-02-28T14:24:48;20.50;26.30
21891;DHT22;11110;52.386;16.940;2023-02-28T14:27:31;20.50;27.30
21891;DHT22;11110;52.386;16.940;2023-02-28T14:30:24;20.60;27.60
21891;DHT22;11110;52.386;16.940;2023-02-28T14:33:04;20.60;26.60
21891;DHT22;11110;52.386;16.940;2023-02-28T14:35:47;20.60;26.40
21891;DHT22;11110;52.386;16.940;2023-02-28T14:38:21;20.60;26.00
21891;DHT22;11110;52.386;16.940;2023-02-28T14:40:54;20.50;25.80
21891;DHT22;11110;52.386;16.940;2023-02-28T14:43:26;20.50;26.40
21891;DHT22;11110;52.386;16.940;2023-02-28T14:45:57;20.60;25.80
21891;DHT22;11110;52.386;16.940;2023-02-28T14:48:27;20.60;25.70
21891;DHT22;11110;52.386;16.940;2023-02-28T14:50:58;20.70;25.60
21891;DHT22;11110;52.386;16.940;2023-02-28T14:53:30;20.70;25.40
21891;DHT22;11110;52.386;16.940;2023-02-28T14:56:03;20.70;26.10
21891;DHT22;11110;52.386;16.940;2023-02-28T14:58:35;20.80;26.40
21891;DHT22;11110;52.386;16.940;2023-02-28T15:01:04;20.90;26.10
21891;DHT22;11110;52.386;16.940;2023-02-28T15:03:33;20.90;26.30
21891;DHT22;11110;52.386;16.940;2023-02-28T15:06:04;20.90;26.30
21891;DHT22;11110;52.386;16.940;2023-02-28T15:08:33;21.00;26.60
21891;DHT22;11110;52.386;16.940;2023-02-28T15:11:06;21.10;26.00
21891;DHT22;11110;52.386;16.940;2023-02-28T15:13:40;21.10;25.90
21891;DHT22;11110;52.386;16.940;2023-02-28T15:16:11;21.20;25.80
21891;DHT22;11110;52.386;16.940;2023-02-28T15:18:46;21.30;26.10
21891;DHT22;11110;52.386;16.940;2023-02-28T15:21:17;21.30;25.80
21891;DHT22;11110;52.386;16.940;2023-02-28T15:23:50;21.30;25.80
21891;DHT22;11110;52.386;16.940;2023-02-28T15:26:23;21.40;25.80
21891;DHT22;11110;52.386;16.940;2023-02-28T15:28:59;21.50;26.00
21891;DHT22;11110;52.386;16.940;2023-02-28T15:31:31;21.50;25.90
21891;DHT22;11110;52.386;16.940;2023-02-28T15:34:21;21.50;25.70
21891;DHT22;11110;52.386;16.940;2023-02-28T15:36:54;21.50;25.80
21891;DHT22;11110;52.386;16.940;2023-02-28T15:39:27;21.40;26.00
21891;DHT22;11110;52.386;16.940;2023-02-28T15:42:11;21.40;26.50
21891;DHT22;11110;52.386;16.940;2023-02-28T15:44:41;21.40;26.50
21891;DHT22;11110;52.386;16.940;2023-02-28T15:47:17;21.40;26.70
21891;DHT22;11110;52.386;16.940;2023-02-28T15:49:49;21.40;26.80
21891;DHT22;11110;52.386;16.940;2023-02-28T15:52:22;21.20;27.00
21891;DHT22;11110;52.386;16.940;2023-02-28T15:54:53;21.20;27.00
21891;DHT22;11110;52.386;16.940;2023-02-28T15:57:24;21.10;27.00
21891;DHT22;11110;52.386;16.940;2023-02-28T15:59:57;21.10;27.00
21891;DHT22;11110;52.386;16.940;2023-02-28T16:02:31;21.00;27.30
21891;DHT22;11110;52.386;16.940;2023-02-28T16:05:22;20.90;27.30
21891;DHT22;11110;52.386;16.940;2023-02-28T16:07:56;20.80;27.40
21891;DHT22;11110;52.386;16.940;2023-02-28T16:10:26;20.60;27.60
21891;DHT22;11110;52.386;16.940;2023-02-28T16:12:56;20.60;27.60